Terminal Aerodrome Forecast
Issued by NWS

Home | Current Version | Previous Version | Text Only | Print | Product List | Glossary On
Versions: 1 2 3 4 5 6 7 8 9 10 11 12
000
FTUS46 KSGX 290500
TAFCRQ
TAF
KCRQ 290520Z 2906/3006 00000KT P6SM SKC
      TEMPO 2908/2912 1/2SM FG BKN002
     FM291200 17004KT 1SM BR BKN003
     FM291500 16005KT 3SM BR BKN004
     FM291700 17006KT P6SM SCT005
     FM300200 18008KT P6SM BKN012=

USA.gov is the U.S. government's official web portal to all federal, state and local government web resources and services.